sensor_id;sensor_type;location;lat;lon;timestamp;pressure;altitude;pressure_sealevel;temperature
72278;BMP280;61204;49.980;8.358;2023-04-01T00:00:59;98903.78;;;10.68
72278;BMP280;61204;49.980;8.358;2023-04-01T00:03:29;98899.59;;;10.67
72278;BMP280;61204;49.980;8.358;2023-04-01T00:05:55;98908.03;;;10.71
72278;BMP280;61204;49.980;8.358;2023-04-01T00:08:26;98899.91;;;10.73
72278;BMP280;61204;49.980;8.358;2023-04-01T00:10:52;98898.38;;;10.70
72278;BMP280;61204;49.980;8.358;2023-04-01T00:13:19;98893.88;;;10.76
72278;BMP280;61204;49.980;8.358;2023-04-01T00:15:45;98901.38;;;10.76
72278;BMP280;61204;49.980;8.358;2023-04-01T00:18:12;98898.84;;;10.80
72278;BMP280;61204;49.980;8.358;2023-04-01T00:20:38;98897.50;;;10.81
72278;BMP280;61204;49.980;8.358;2023-04-01T00:23:07;98890.34;;;10.89
72278;BMP280;61204;49.980;8.358;2023-04-01T00:25:32;98905.72;;;10.97
72278;BMP280;61204;49.980;8.358;2023-04-01T00:27:58;98897.66;;;11.01
72278;BMP280;61204;49.980;8.358;2023-04-01T00:30:23;98897.94;;;10.91
72278;BMP280;61204;49.980;8.358;2023-04-01T00:32:52;98899.78;;;11.02
72278;BMP280;61204;49.980;8.358;2023-04-01T00:35:21;98892.44;;;11.07
72278;BMP280;61204;49.980;8.358;2023-04-01T00:37:47;98889.34;;;10.99
72278;BMP280;61204;49.980;8.358;2023-04-01T00:40:24;98892.75;;;10.97
72278;BMP280;61204;49.980;8.358;2023-04-01T00:42:54;98878.00;;;11.06
72278;BMP280;61204;49.980;8.358;2023-04-01T00:45:42;98891.91;;;11.10
72278;BMP280;61204;49.980;8.358;2023-04-01T00:48:12;98886.69;;;11.01
72278;BMP280;61204;49.980;8.358;2023-04-01T00:50:47;98897.66;;;11.01
72278;BMP280;61204;49.980;8.358;2023-04-01T00:53:22;98886.06;;;11.02
72278;BMP280;61204;49.980;8.358;2023-04-01T00:55:50;98888.63;;;10.98
72278;BMP280;61204;49.980;8.358;2023-04-01T00:58:24;98888.19;;;11.04
72278;BMP280;61204;49.980;8.358;2023-04-01T01:00:54;98880.22;;;11.10
72278;BMP280;61204;49.980;8.358;2023-04-01T01:03:22;98884.81;;;11.05
72278;BMP280;61204;49.980;8.358;2023-04-01T01:05:55;98875.72;;;11.01
72278;BMP280;61204;49.980;8.358;2023-04-01T01:11:19;98887.38;;;11.17
72278;BMP280;61204;49.980;8.358;2023-04-01T01:14:06;98885.72;;;11.10
72278;BMP280;61204;49.980;8.358;2023-04-01T01:16:36;98888.44;;;11.10
72278;BMP280;61204;49.980;8.358;2023-04-01T01:25:14;98876.44;;;11.01
72278;BMP280;61204;49.980;8.358;2023-04-01T01:31:54;98888.47;;;10.94
72278;BMP280;61204;49.980;8.358;2023-04-01T01:37:43;98880.06;;;10.90
72278;BMP280;61204;49.980;8.358;2023-04-01T01:40:12;98882.91;;;10.92
72278;BMP280;61204;49.980;8.358;2023-04-01T01:42:41;98882.09;;;10.89
72278;BMP280;61204;49.980;8.358;2023-04-01T01:45:15;98883.38;;;10.86
72278;BMP280;61204;49.980;8.358;2023-04-01T01:47:47;98876.81;;;10.94
72278;BMP280;61204;49.980;8.358;2023-04-01T01:50:15;98885.75;;;10.94
72278;BMP280;61204;49.980;8.358;2023-04-01T01:52:46;98888.28;;;10.90
72278;BMP280;61204;49.980;8.358;2023-04-01T01:57:57;98891.94;;;10.95
72278;BMP280;61204;49.980;8.358;2023-04-01T02:00:30;98882.44;;;10.98
72278;BMP280;61204;49.980;8.358;2023-04-01T02:02:58;98878.75;;;10.91
72278;BMP280;61204;49.980;8.358;2023-04-01T02:05:28;98881.66;;;10.95
72278;BMP280;61204;49.980;8.358;2023-04-01T02:08:15;98876.72;;;10.92
72278;BMP280;61204;49.980;8.358;2023-04-01T02:10:51;98871.41;;;10.96
72278;BMP280;61204;49.980;8.358;2023-04-01T02:13:27;98863.88;;;10.96
72278;BMP280;61204;49.980;8.358;2023-04-01T02:16:15;98868.84;;;10.84
72278;BMP280;61204;49.980;8.358;2023-04-01T02:18:57;98866.00;;;10.82
72278;BMP280;61204;49.980;8.358;2023-04-01T02:21:26;98868.94;;;10.86
72278;BMP280;61204;49.980;8.358;2023-04-01T02:23:56;98853.38;;;10.90
72278;BMP280;61204;49.980;8.358;2023-04-01T02:26:25;98846.72;;;10.96
72278;BMP280;61204;49.980;8.358;2023-04-01T02:28:52;98862.91;;;10.89
72278;BMP280;61204;49.980;8.358;2023-04-01T02:31:20;98869.66;;;10.86
72278;BMP280;61204;49.980;8.358;2023-04-01T02:33:48;98863.53;;;10.88
72278;BMP280;61204;49.980;8.358;2023-04-01T02:36:17;98862.28;;;10.91
72278;BMP280;61204;49.980;8.358;2023-04-01T02:38:43;98862.56;;;10.81
72278;BMP280;61204;49.980;8.358;2023-04-01T02:41:11;98865.25;;;10.79
72278;BMP280;61204;49.980;8.358;2023-04-01T02:43:37;98864.00;;;10.82
72278;BMP280;61204;49.980;8.358;2023-04-01T02:46:03;98861.44;;;10.71
72278;BMP280;61204;49.980;8.358;2023-04-01T02:48:29;98872.75;;;10.63
72278;BMP280;61204;49.980;8.358;2023-04-01T02:50:55;98887.53;;;10.72
72278;BMP280;61204;49.980;8.358;2023-04-01T02:53:21;98871.09;;;10.72
72278;BMP280;61204;49.980;8.358;2023-04-01T02:55:46;98854.44;;;10.68
72278;BMP280;61204;49.980;8.358;2023-04-01T02:58:15;98863.97;;;10.67
72278;BMP280;61204;49.980;8.358;2023-04-01T03:00:41;98846.94;;;10.68
72278;BMP280;61204;49.980;8.358;2023-04-01T03:03:06;98858.44;;;10.65
72278;BMP280;61204;49.980;8.358;2023-04-01T03:05:32;98865.25;;;10.64
72278;BMP280;61204;49.980;8.358;2023-04-01T03:07:58;98853.03;;;10.51
72278;BMP280;61204;49.980;8.358;2023-04-01T03:10:23;98855.94;;;10.55
72278;BMP280;61204;49.980;8.358;2023-04-01T03:12:49;98848.81;;;10.64
72278;BMP280;61204;49.980;8.358;2023-04-01T03:15:15;98856.75;;;10.57
72278;BMP280;61204;49.980;8.358;2023-04-01T03:17:41;98850.56;;;10.57
72278;BMP280;61204;49.980;8.358;2023-04-01T03:20:08;98861.34;;;10.53
72278;BMP280;61204;49.980;8.358;2023-04-01T03:22:35;98857.28;;;10.54
72278;BMP280;61204;49.980;8.358;2023-04-01T03:25:02;98861.50;;;10.57
72278;BMP280;61204;49.980;8.358;2023-04-01T03:27:30;98850.91;;;10.49
72278;BMP280;61204;49.980;8.358;2023-04-01T03:29:57;98858.25;;;10.60
72278;BMP280;61204;49.980;8.358;2023-04-01T03:32:23;98858.84;;;10.59
72278;BMP280;61204;49.980;8.358;2023-04-01T03:34:52;98845.88;;;10.59
72278;BMP280;61204;49.980;8.358;2023-04-01T03:37:17;98859.13;;;10.49
72278;BMP280;61204;49.980;8.358;2023-04-01T03:39:43;98864.59;;;10.49
72278;BMP280;61204;49.980;8.358;2023-04-01T03:42:08;98863.28;;;10.50
72278;BMP280;61204;49.980;8.358;2023-04-01T03:44:36;98850.75;;;10.45
72278;BMP280;61204;49.980;8.358;2023-04-01T03:47:01;98852.78;;;10.45
72278;BMP280;61204;49.980;8.358;2023-04-01T03:49:29;98850.03;;;10.45
72278;BMP280;61204;49.980;8.358;2023-04-01T03:51:57;98854.81;;;10.44
72278;BMP280;61204;49.980;8.358;2023-04-01T03:54:22;98852.59;;;10.41
72278;BMP280;61204;49.980;8.358;2023-04-01T03:56:48;98849.13;;;10.40
72278;BMP280;61204;49.980;8.358;2023-04-01T03:59:13;98859.69;;;10.46
72278;BMP280;61204;49.980;8.358;2023-04-01T04:01:39;98854.59;;;10.40
72278;BMP280;61204;49.980;8.358;2023-04-01T04:04:04;98850.63;;;10.43
72278;BMP280;61204;49.980;8.358;2023-04-01T04:06:30;98861.25;;;10.51
72278;BMP280;61204;49.980;8.358;2023-04-01T04:08:58;98861.88;;;10.49
72278;BMP280;61204;49.980;8.358;2023-04-01T04:11:24;98849.56;;;10.50
72278;BMP280;61204;49.980;8.358;2023-04-01T04:13:50;98859.22;;;10.51
72278;BMP280;61204;49.980;8.358;2023-04-01T04:16:17;98853.38;;;10.59
72278;BMP280;61204;49.980;8.358;2023-04-01T04:18:43;98865.25;;;10.64
72278;BMP280;61204;49.980;8.358;2023-04-01T04:21:11;98857.91;;;10.68
72278;BMP280;61204;49.980;8.358;2023-04-01T04:23:38;98869.47;;;10.67
72278;BMP280;61204;49.980;8.358;2023-04-01T04:26:05;98859.13;;;10.65
72278;BMP280;61204;49.980;8.358;2023-04-01T04:28:34;98854.34;;;10.66
72278;BMP280;61204;49.980;8.358;2023-04-01T04:31:00;98870.78;;;10.66
72278;BMP280;61204;49.980;8.358;2023-04-01T04:33:26;98862.13;;;10.55
72278;BMP280;61204;49.980;8.358;2023-04-01T04:35:54;98858.25;;;10.60
72278;BMP280;61204;49.980;8.358;2023-04-01T04:38:22;98857.28;;;10.54
72278;BMP280;61204;49.980;8.358;2023-04-01T04:40:50;98858.63;;;10.53
72278;BMP280;61204;49.980;8.358;2023-04-01T04:43:16;98859.94;;;10.52
72278;BMP280;61204;49.980;8.358;2023-04-01T04:45:43;98857.00;;;10.48
72278;BMP280;61204;49.980;8.358;2023-04-01T04:48:10;98866.31;;;10.56
72278;BMP280;61204;49.980;8.358;2023-04-01T04:50:43;98861.16;;;10.49
72278;BMP280;61204;49.980;8.358;2023-04-01T04:53:11;98856.03;;;10.41
72278;BMP280;61204;49.980;8.358;2023-04-01T04:55:42;98859.91;;;10.36
72278;BMP280;61204;49.980;8.358;2023-04-01T04:58:13;98851.97;;;10.42
72278;BMP280;61204;49.980;8.358;2023-04-01T05:00:38;98858.50;;;10.51
72278;BMP280;61204;49.980;8.358;2023-04-01T05:03:04;98860.81;;;10.41
72278;BMP280;61204;49.980;8.358;2023-04-01T05:05:30;98864.69;;;10.51
72278;BMP280;61204;49.980;8.358;2023-04-01T05:07:55;98865.16;;;10.46
72278;BMP280;61204;49.980;8.358;2023-04-01T05:10:20;98865.84;;;10.46
72278;BMP280;61204;49.980;8.358;2023-04-01T05:12:46;98862.41;;;10.46
72278;BMP280;61204;49.980;8.358;2023-04-01T05:15:11;98865.66;;;10.42
72278;BMP280;61204;49.980;8.358;2023-04-01T05:17:37;98856.13;;;10.43
72278;BMP280;61204;49.980;8.358;2023-04-01T05:20:02;98857.09;;;10.50
72278;BMP280;61204;49.980;8.358;2023-04-01T05:22:29;98859.69;;;10.46
72278;BMP280;61204;49.980;8.358;2023-04-01T05:24:54;98858.34;;;10.47
72278;BMP280;61204;49.980;8.358;2023-04-01T05:27:20;98858.34;;;10.47
72278;BMP280;61204;49.980;8.358;2023-04-01T05:29:46;98859.06;;;10.47
72278;BMP280;61204;49.980;8.358;2023-04-01T05:32:11;98863.22;;;10.48
72278;BMP280;61204;49.980;8.358;2023-04-01T05:34:36;98856.38;;;10.49
72278;BMP280;61204;49.980;8.358;2023-04-01T05:37:02;98861.88;;;10.49
72278;BMP280;61204;49.980;8.358;2023-04-01T05:39:27;98876.38;;;10.52
72278;BMP280;61204;49.980;8.358;2023-04-01T05:41:53;98857.91;;;10.52
72278;BMP280;61204;49.980;8.358;2023-04-01T05:44:18;98853.66;;;10.49
72278;BMP280;61204;49.980;8.358;2023-04-01T05:46:44;98858.25;;;10.45
72278;BMP280;61204;49.980;8.358;2023-04-01T05:49:09;98855.75;;;10.51
72278;BMP280;61204;49.980;8.358;2023-04-01T05:51:37;98854.19;;;10.46
72278;BMP280;61204;49.980;8.358;2023-04-01T05:54:04;98855.75;;;10.51
72278;BMP280;61204;49.980;8.358;2023-04-01T05:56:30;98860.66;;;10.52
72278;BMP280;61204;49.980;8.358;2023-04-01T05:58:56;98854.28;;;10.48
72278;BMP280;61204;49.980;8.358;2023-04-01T06:01:21;98850.91;;;10.49
72278;BMP280;61204;49.980;8.358;2023-04-01T06:03:47;98856.66;;;10.55
72278;BMP280;61204;49.980;8.358;2023-04-01T06:06:16;98856.94;;;10.61
72278;BMP280;61204;49.980;8.358;2023-04-01T06:08:50;98848.16;;;10.65
72278;BMP280;61204;49.980;8.358;2023-04-01T06:14:10;98855.88;;;10.69
72278;BMP280;61204;49.980;8.358;2023-04-01T06:35:31;98851.91;;;10.72
72278;BMP280;61204;49.980;8.358;2023-04-01T06:55:51;98856.72;;;10.89
72278;BMP280;61204;49.980;8.358;2023-04-01T06:58:24;98847.88;;;10.90
72278;BMP280;61204;49.980;8.358;2023-04-01T07:01:06;98856.72;;;10.89
72278;BMP280;61204;49.980;8.358;2023-04-01T07:03:47;98840.34;;;10.91
72278;BMP280;61204;49.980;8.358;2023-04-01T07:06:26;98850.97;;;10.99
72278;BMP280;61204;49.980;8.358;2023-04-01T07:09:00;98852.53;;;11.04
72278;BMP280;61204;49.980;8.358;2023-04-01T07:11:34;98849.81;;;11.04
72278;BMP280;61204;49.980;8.358;2023-04-01T07:14:12;98847.84;;;11.06
72278;BMP280;61204;49.980;8.358;2023-04-01T07:16:49;98846.75;;;11.13
72278;BMP280;61204;49.980;8.358;2023-04-01T07:19:24;98847.03;;;11.20
72278;BMP280;61204;49.980;8.358;2023-04-01T07:22:04;98845.88;;;11.25
72278;BMP280;61204;49.980;8.358;2023-04-01T07:24:46;98841.56;;;11.37
72278;BMP280;61204;49.980;8.358;2023-04-01T07:27:13;98845.16;;;11.42
72278;BMP280;61204;49.980;8.358;2023-04-01T07:29:39;98852.47;;;11.35
72278;BMP280;61204;49.980;8.358;2023-04-01T07:32:12;98854.75;;;11.41
72278;BMP280;61204;49.980;8.358;2023-04-01T07:38:37;98873.81;;;11.55
72278;BMP280;61204;49.980;8.358;2023-04-01T07:55:27;98876.94;;;11.83
72278;BMP280;61204;49.980;8.358;2023-04-01T07:58:23;98879.28;;;11.90
72278;BMP280;61204;49.980;8.358;2023-04-01T08:04:07;98889.97;;;12.00
72278;BMP280;61204;49.980;8.358;2023-04-01T08:07:23;98882.59;;;12.05
72278;BMP280;61204;49.980;8.358;2023-04-01T08:22:08;98879.38;;;11.23
72278;BMP280;61204;49.980;8.358;2023-04-01T08:24:46;98885.34;;;11.17
72278;BMP280;61204;49.980;8.358;2023-04-01T08:32:27;98885.50;;;11.22
72278;BMP280;61204;49.980;8.358;2023-04-01T08:37:51;98883.19;;;11.32
72278;BMP280;61204;49.980;8.358;2023-04-01T08:47:09;98874.44;;;11.20
72278;BMP280;61204;49.980;8.358;2023-04-01T08:58:52;98878.72;;;11.40
72278;BMP280;61204;49.980;8.358;2023-04-01T09:01:25;98871.53;;;11.49
72278;BMP280;61204;49.980;8.358;2023-04-01T09:04:25;98878.88;;;11.44
72278;BMP280;61204;49.980;8.358;2023-04-01T09:07:14;98876.50;;;11.37
72278;BMP280;61204;49.980;8.358;2023-04-01T09:19:01;98871.63;;;11.17
72278;BMP280;61204;49.980;8.358;2023-04-01T09:28:10;98857.31;;;11.03
72278;BMP280;61204;49.980;8.358;2023-04-01T09:36:38;98860.06;;;11.03
72278;BMP280;61204;49.980;8.358;2023-04-01T09:39:20;98844.31;;;11.04
72278;BMP280;61204;49.980;8.358;2023-04-01T09:45:00;98843.94;;;11.11
72278;BMP280;61204;49.980;8.358;2023-04-01T09:50:35;98837.22;;;11.14
72278;BMP280;61204;49.980;8.358;2023-04-01T09:53:49;98838.97;;;11.24
72278;BMP280;61204;49.980;8.358;2023-04-01T10:41:22;98869.34;;;11.63
72278;BMP280;61204;49.980;8.358;2023-04-01T10:58:54;98875.19;;;12.27
72278;BMP280;61204;49.980;8.358;2023-04-01T11:14:17;98886.47;;;12.55
72278;BMP280;61204;49.980;8.358;2023-04-01T11:32:09;98893.88;;;12.31
72278;BMP280;61204;49.980;8.358;2023-04-01T11:41:38;98893.59;;;12.42
72278;BMP280;61204;49.980;8.358;2023-04-01T11:55:03;98916.53;;;12.69
72278;BMP280;61204;49.980;8.358;2023-04-01T12:10:15;98916.19;;;12.03
72278;BMP280;61204;49.980;8.358;2023-04-01T12:13:29;98907.22;;;12.20
72278;BMP280;61204;49.980;8.358;2023-04-01T12:17:11;98897.31;;;12.13
72278;BMP280;61204;49.980;8.358;2023-04-01T12:30:50;98881.91;;;11.86
72278;BMP280;61204;49.980;8.358;2023-04-01T13:00:36;98890.97;;;11.22
72278;BMP280;61204;49.980;8.358;2023-04-01T13:15:07;98874.13;;;11.63
72278;BMP280;61204;49.980;8.358;2023-04-01T13:18:15;98870.19;;;11.68
72278;BMP280;61204;49.980;8.358;2023-04-01T13:21:03;98879.06;;;11.66
72278;BMP280;61204;49.980;8.358;2023-04-01T13:32:55;98886.63;;;11.66
72278;BMP280;61204;49.980;8.358;2023-04-01T13:35:49;98885.97;;;11.67
72278;BMP280;61204;49.980;8.358;2023-04-01T13:47:07;98892.19;;;11.86
72278;BMP280;61204;49.980;8.358;2023-04-01T13:49:53;98894.44;;;11.91
72278;BMP280;61204;49.980;8.358;2023-04-01T13:58:31;98927.22;;;12.61
72278;BMP280;61204;49.980;8.358;2023-04-01T14:04:24;98960.25;;;12.80
72278;BMP280;61204;49.980;8.358;2023-04-01T14:25:41;98996.25;;;12.69
72278;BMP280;61204;49.980;8.358;2023-04-01T14:36:41;99024.06;;;12.77
72278;BMP280;61204;49.980;8.358;2023-04-01T14:39:23;99027.22;;;12.69
72278;BMP280;61204;49.980;8.358;2023-04-01T14:45:36;99026.91;;;12.61
72278;BMP280;61204;49.980;8.358;2023-04-01T14:51:38;99040.91;;;12.49
72278;BMP280;61204;49.980;8.358;2023-04-01T14:54:08;99037.66;;;12.55
72278;BMP280;61204;49.980;8.358;2023-04-01T14:56:48;99033.06;;;12.60
72278;BMP280;61204;49.980;8.358;2023-04-01T14:59:27;99039.09;;;12.56
72278;BMP280;61204;49.980;8.358;2023-04-01T15:02:01;99049.91;;;12.52
72278;BMP280;61204;49.980;8.358;2023-04-01T15:05:01;99048.69;;;12.37
72278;BMP280;61204;49.980;8.358;2023-04-01T15:14:09;99063.75;;;12.54
72278;BMP280;61204;49.980;8.358;2023-04-01T15:19:45;99065.84;;;12.91
72278;BMP280;61204;49.980;8.358;2023-04-01T15:28:05;99091.50;;;13.35
72278;BMP280;61204;49.980;8.358;2023-04-01T15:45:15;99111.34;;;13.52
72278;BMP280;61204;49.980;8.358;2023-04-01T15:54:14;99122.09;;;13.06
72278;BMP280;61204;49.980;8.358;2023-04-01T16:06:14;99116.13;;;12.58
72278;BMP280;61204;49.980;8.358;2023-04-01T16:15:14;99097.25;;;12.15
72278;BMP280;61204;49.980;8.358;2023-04-01T16:30:01;99122.31;;;12.23
72278;BMP280;61204;49.980;8.358;2023-04-01T16:32:54;99120.00;;;12.17
72278;BMP280;61204;49.980;8.358;2023-04-01T16:38:18;99132.84;;;12.13
72278;BMP280;61204;49.980;8.358;2023-04-01T16:46:34;99150.75;;;12.14
72278;BMP280;61204;49.980;8.358;2023-04-01T16:51:54;99149.22;;;11.93
72278;BMP280;61204;49.980;8.358;2023-04-01T16:57:12;99158.06;;;11.91
72278;BMP280;61204;49.980;8.358;2023-04-01T17:02:20;99174.75;;;11.95
72278;BMP280;61204;49.980;8.358;2023-04-01T17:05:06;99177.53;;;11.97
72278;BMP280;61204;49.980;8.358;2023-04-01T17:19:10;99202.09;;;11.78
72278;BMP280;61204;49.980;8.358;2023-04-01T17:21:57;99209.88;;;11.83
72278;BMP280;61204;49.980;8.358;2023-04-01T17:28:03;99206.25;;;11.79
72278;BMP280;61204;49.980;8.358;2023-04-01T17:31:00;99203.25;;;11.72
72278;BMP280;61204;49.980;8.358;2023-04-01T17:33:35;99214.75;;;11.69
72278;BMP280;61204;49.980;8.358;2023-04-01T17:39:49;99216.41;;;11.60
72278;BMP280;61204;49.980;8.358;2023-04-01T17:42:30;99206.22;;;11.47
72278;BMP280;61204;49.980;8.358;2023-04-01T17:47:49;99213.97;;;11.37
72278;BMP280;61204;49.980;8.358;2023-04-01T17:50:33;99215.94;;;11.34
72278;BMP280;61204;49.980;8.358;2023-04-01T17:56:14;99222.47;;;11.27
72278;BMP280;61204;49.980;8.358;2023-04-01T18:02:41;99234.34;;;11.32
72278;BMP280;61204;49.980;8.358;2023-04-01T18:11:48;99259.78;;;11.18
72278;BMP280;61204;49.980;8.358;2023-04-01T18:20:25;99288.72;;;11.22
72278;BMP280;61204;49.980;8.358;2023-04-01T18:23:04;99287.22;;;11.18
72278;BMP280;61204;49.980;8.358;2023-04-01T18:25:48;99295.25;;;11.14
72278;BMP280;61204;49.980;8.358;2023-04-01T18:31:16;99305.41;;;11.12
72278;BMP280;61204;49.980;8.358;2023-04-01T18:36:37;99304.78;;;11.13
72278;BMP280;61204;49.980;8.358;2023-04-01T18:39:23;99316.88;;;11.08
72278;BMP280;61204;49.980;8.358;2023-04-01T18:45:20;99321.06;;;11.09
72278;BMP280;61204;49.980;8.358;2023-04-01T18:51:10;99326.25;;;10.89
72278;BMP280;61204;49.980;8.358;2023-04-01T18:53:48;99330.72;;;10.83
72278;BMP280;61204;49.980;8.358;2023-04-01T18:56:37;99338.34;;;10.84
72278;BMP280;61204;49.980;8.358;2023-04-01T18:59:23;99331.03;;;10.75
72278;BMP280;61204;49.980;8.358;2023-04-01T19:02:13;99338.53;;;10.61
72278;BMP280;61204;49.980;8.358;2023-04-01T19:07:43;99346.25;;;10.65
72278;BMP280;61204;49.980;8.358;2023-04-01T19:21:28;99358.25;;;10.32
72278;BMP280;61204;49.980;8.358;2023-04-01T19:24:32;99358.59;;;10.38
72278;BMP280;61204;49.980;8.358;2023-04-01T19:30:21;99375.31;;;10.30
72278;BMP280;61204;49.980;8.358;2023-04-01T19:38:40;99377.63;;;10.22
72278;BMP280;61204;49.980;8.358;2023-04-01T19:47:33;99384.47;;;10.10
72278;BMP280;61204;49.980;8.358;2023-04-01T20:04:42;99403.31;;;10.03
72278;BMP280;61204;49.980;8.358;2023-04-01T20:10:28;99407.56;;;10.06
72278;BMP280;61204;49.980;8.358;2023-04-01T20:16:03;99415.56;;;10.02
72278;BMP280;61204;49.980;8.358;2023-04-01T20:18:34;99415.09;;;10.06
72278;BMP280;61204;49.980;8.358;2023-04-01T20:26:59;99432.72;;;10.03
72278;BMP280;61204;49.980;8.358;2023-04-01T20:37:38;99429.59;;;10.08
72278;BMP280;61204;49.980;8.358;2023-04-01T20:51:59;99447.34;;;10.07
72278;BMP280;61204;49.980;8.358;2023-04-01T21:00:15;99455.91;;;10.02
72278;BMP280;61204;49.980;8.358;2023-04-01T21:35:08;99511.44;;;10.28
72278;BMP280;61204;49.980;8.358;2023-04-01T21:49:24;99518.66;;;10.10
72278;BMP280;61204;49.980;8.358;2023-04-01T22:07:41;99535.19;;;10.23
72278;BMP280;61204;49.980;8.358;2023-04-01T22:13:18;99537.56;;;10.17
72278;BMP280;61204;49.980;8.358;2023-04-01T22:18:39;99551.63;;;10.23
72278;BMP280;61204;49.980;8.358;2023-04-01T22:21:21;99547.22;;;10.18
72278;BMP280;61204;49.980;8.358;2023-04-01T22:24:10;99548.41;;;10.15
72278;BMP280;61204;49.980;8.358;2023-04-01T22:27:03;99550.09;;;10.08
72278;BMP280;61204;49.980;8.358;2023-04-01T22:30:00;99549.38;;;10.08
72278;BMP280;61204;49.980;8.358;2023-04-01T22:32:49;99544.47;;;10.18
72278;BMP280;61204;49.980;8.358;2023-04-01T22:56:51;99552.63;;;9.81
72278;BMP280;61204;49.980;8.358;2023-04-01T22:59:45;99550.94;;;9.76
72278;BMP280;61204;49.980;8.358;2023-04-01T23:02:29;99551.56;;;9.74
72278;BMP280;61204;49.980;8.358;2023-04-01T23:05:02;99558.69;;;9.79
72278;BMP280;61204;49.980;8.358;2023-04-01T23:07:39;99559.53;;;9.82
72278;BMP280;61204;49.980;8.358;2023-04-01T23:10:21;99565.59;;;9.80
72278;BMP280;61204;49.980;8.358;2023-04-01T23:12:49;99561.31;;;9.77
72278;BMP280;61204;49.980;8.358;2023-04-01T23:15:18;99574.41;;;9.79
72278;BMP280;61204;49.980;8.358;2023-04-01T23:18:05;99576.31;;;9.76
72278;BMP280;61204;49.980;8.358;2023-04-01T23:20:53;99580.34;;;9.75
72278;BMP280;61204;49.980;8.358;2023-04-01T23:29:38;99589.13;;;9.97
72278;BMP280;61204;49.980;8.358;2023-04-01T23:32:05;99598.56;;;10.06
72278;BMP280;61204;49.980;8.358;2023-04-01T23:34:40;99598.78;;;9.98
72278;BMP280;61204;49.980;8.358;2023-04-01T23:37:16;99598.44;;;10.04
72278;BMP280;61204;49.980;8.358;2023-04-01T23:39:45;99604.16;;;9.96
72278;BMP280;61204;49.980;8.358;2023-04-01T23:42:30;99617.94;;;9.98
72278;BMP280;61204;49.980;8.358;2023-04-01T23:45:05;99622.50;;;10.05
72278;BMP280;61204;49.980;8.358;2023-04-01T23:47:47;99635.47;;;10.05
72278;BMP280;61204;49.980;8.358;2023-04-01T23:50:19;99634.63;;;10.02
72278;BMP280;61204;49.980;8.358;2023-04-01T23:52:52;99633.59;;;9.96
72278;BMP280;61204;49.980;8.358;2023-04-01T23:55:28;99637.13;;;9.98
72278;BMP280;61204;49.980;8.358;2023-04-01T23:58:15;99644.63;;;9.98
